Qaanaaq

KL  EN  DA
ASIAQ
Weather Now GREENLAND SURVEY
Updated [WGT/WGST] Temperature [°C] Wind [m/s] Air pressure [hPa] Relative humidity [%] Precipitation [mm]
Present Wind chill Speed Max
21.01 21:00-14,6-23,45,3 ⇐6,1993500,0
21.01 20:00-15,0-24,35,8 ⇐6,9992550,0
21.01 19:00-14,3-23,25,5 ⇐6,7991550,1
21.01 18:00-14,40,00,0 ⇓0,4990680,1
21.01 17:00-14,5-23,05,0 ⇘6,1989790,0
21.01 16:00-14,7-22,94,6 ⇖5,9988690,0
21.01 15:00-13,1-22,16,0 ⇙7,1987580,2
21.01 14:00-13,90,00,7 ⇒1,7986710,0
21.01 13:00-13,7-20,73,6 ⇐4,3985760,3
21.01 12:00-13,30,00,0 ⇓0,0985830,1
21.01 11:00-12,80,00,4 ⇑1,9984880,4
21.01 10:00-12,20,01,3 ⇖1,6982880,4
21.01 09:00-12,2-15,41,4 ⇑1,9982860,3
21.01 08:00-12,40,00,0 ⇓0,0980840,2
21.01 07:00-13,30,00,0 ⇓0,0979890,0
21.01 06:00-12,50,00,0 ⇓0,5979880,0
21.01 05:00-15,20,00,0 ⇓0,0978900,0
21.01 04:00-12,9-17,52,0 ⇓3,4978820,0
21.01 03:00-14,00,00,7 ⇓2,1978840,0
21.01 02:00-14,9-19,41,8 ⇓2,5978860,0
21.01 01:00-15,9-24,04,2 ⇘5,7978860,0
21.01 00:00-16,6-24,84,1 ⇘5,7978790,0
20.01 23:00-16,2-21,72,2 ⇘3,5978780,0
20.01 22:00-18,0-25,83,5 ⇘4,7978800,0
20.01 21:00-18,5-26,93,9 ⇘5,6978820,0
Position: (77.48527778,-69.3744444444)

[Back]